sensor_id;sensor_type;location;lat;lon;timestamp;temperature;humidity
7196;DHT22;3639;51.308;5.624;2022-11-24T00:01:24;7.80;99.90
7196;DHT22;3639;51.308;5.624;2022-11-24T00:03:58;7.80;99.90
7196;DHT22;3639;51.308;5.624;2022-11-24T00:06:24;7.80;99.90
7196;DHT22;3639;51.308;5.624;2022-11-24T00:08:50;7.80;99.90
7196;DHT22;3639;51.308;5.624;2022-11-24T00:11:19;7.70;99.90
7196;DHT22;3639;51.308;5.624;2022-11-24T00:13:45;7.80;99.90
7196;DHT22;3639;51.308;5.624;2022-11-24T00:18:43;7.80;99.90
7196;DHT22;3639;51.308;5.624;2022-11-24T00:21:09;7.90;99.90
7196;DHT22;3639;51.308;5.624;2022-11-24T00:23:35;7.80;99.90
7196;DHT22;3639;51.308;5.624;2022-11-24T00:26:09;7.80;99.90
7196;DHT22;3639;51.308;5.624;2022-11-24T00:28:36;7.80;99.90
7196;DHT22;3639;51.308;5.624;2022-11-24T00:31:03;7.70;99.90
7196;DHT22;3639;51.308;5.624;2022-11-24T00:33:29;7.70;99.90
7196;DHT22;3639;51.308;5.624;2022-11-24T00:35:59;7.60;99.90
7196;DHT22;3639;51.308;5.624;2022-11-24T00:38:25;7.70;99.90
7196;DHT22;3639;51.308;5.624;2022-11-24T00:40:51;7.60;99.90
7196;DHT22;3639;51.308;5.624;2022-11-24T00:43:18;7.60;99.90
7196;DHT22;3639;51.308;5.624;2022-11-24T00:45:43;7.60;99.90
7196;DHT22;3639;51.308;5.624;2022-11-24T00:48:09;7.60;99.90
7196;DHT22;3639;51.308;5.624;2022-11-24T00:50:35;7.60;99.90
7196;DHT22;3639;51.308;5.624;2022-11-24T00:53:00;7.60;99.90
7196;DHT22;3639;51.308;5.624;2022-11-24T00:55:26;7.60;99.90
7196;DHT22;3639;51.308;5.624;2022-11-24T00:57:52;7.60;99.90
7196;DHT22;3639;51.308;5.624;2022-11-24T01:00:18;7.60;99.90
7196;DHT22;3639;51.308;5.624;2022-11-24T01:02:43;7.50;99.90
7196;DHT22;3639;51.308;5.624;2022-11-24T01:05:09;7.50;99.90
7196;DHT22;3639;51.308;5.624;2022-11-24T01:07:35;7.50;99.90
7196;DHT22;3639;51.308;5.624;2022-11-24T01:10:01;7.50;99.90
7196;DHT22;3639;51.308;5.624;2022-11-24T01:12:27;7.60;99.90
7196;DHT22;3639;51.308;5.624;2022-11-24T01:14:53;7.60;99.90
7196;DHT22;3639;51.308;5.624;2022-11-24T01:17:18;7.60;99.90
7196;DHT22;3639;51.308;5.624;2022-11-24T01:19:44;7.50;99.90
7196;DHT22;3639;51.308;5.624;2022-11-24T01:22:14;7.60;99.90
7196;DHT22;3639;51.308;5.624;2022-11-24T01:24:40;7.60;99.90
7196;DHT22;3639;51.308;5.624;2022-11-24T01:27:06;7.70;99.90
7196;DHT22;3639;51.308;5.624;2022-11-24T01:29:31;7.70;99.90
7196;DHT22;3639;51.308;5.624;2022-11-24T01:31:57;7.70;99.90
7196;DHT22;3639;51.308;5.624;2022-11-24T01:34:23;7.70;99.90
7196;DHT22;3639;51.308;5.624;2022-11-24T01:36:48;7.60;99.90
7196;DHT22;3639;51.308;5.624;2022-11-24T01:39:14;7.80;99.90
7196;DHT22;3639;51.308;5.624;2022-11-24T01:41:40;7.80;99.90
7196;DHT22;3639;51.308;5.624;2022-11-24T01:44:26;7.90;99.90
7196;DHT22;3639;51.308;5.624;2022-11-24T01:47:02;7.90;99.90
7196;DHT22;3639;51.308;5.624;2022-11-24T01:49:47;7.90;99.90
7196;DHT22;3639;51.308;5.624;2022-11-24T01:54:49;7.90;99.90
7196;DHT22;3639;51.308;5.624;2022-11-24T01:57:22;7.80;99.90
7196;DHT22;3639;51.308;5.624;2022-11-24T01:59:53;7.80;99.90
7196;DHT22;3639;51.308;5.624;2022-11-24T02:02:21;7.80;99.90
7196;DHT22;3639;51.308;5.624;2022-11-24T02:04:47;7.70;99.90
7196;DHT22;3639;51.308;5.624;2022-11-24T02:07:13;7.80;99.90
7196;DHT22;3639;51.308;5.624;2022-11-24T02:09:48;7.70;99.90
7196;DHT22;3639;51.308;5.624;2022-11-24T02:12:15;7.70;99.90
7196;DHT22;3639;51.308;5.624;2022-11-24T02:14:41;7.70;99.90
7196;DHT22;3639;51.308;5.624;2022-11-24T02:17:07;7.60;99.90
7196;DHT22;3639;51.308;5.624;2022-11-24T02:25:09;7.70;99.90
7196;DHT22;3639;51.308;5.624;2022-11-24T02:27:37;7.70;99.90
7196;DHT22;3639;51.308;5.624;2022-11-24T02:30:03;7.70;99.90
7196;DHT22;3639;51.308;5.624;2022-11-24T02:32:31;7.80;99.90
7196;DHT22;3639;51.308;5.624;2022-11-24T02:35:01;7.70;99.90
7196;DHT22;3639;51.308;5.624;2022-11-24T02:37:27;7.80;99.90
7196;DHT22;3639;51.308;5.624;2022-11-24T02:39:53;7.80;99.90
7196;DHT22;3639;51.308;5.624;2022-11-24T02:42:19;7.80;99.90
7196;DHT22;3639;51.308;5.624;2022-11-24T02:44:48;7.80;99.90
7196;DHT22;3639;51.308;5.624;2022-11-24T02:47:15;7.80;99.90
7196;DHT22;3639;51.308;5.624;2022-11-24T02:49:40;7.80;99.90
7196;DHT22;3639;51.308;5.624;2022-11-24T02:52:06;7.80;99.90
7196;DHT22;3639;51.308;5.624;2022-11-24T02:54:32;7.80;99.90
7196;DHT22;3639;51.308;5.624;2022-11-24T02:56:59;7.90;99.90
7196;DHT22;3639;51.308;5.624;2022-11-24T02:59:25;7.90;99.90
7196;DHT22;3639;51.308;5.624;2022-11-24T03:01:50;8.00;99.90
7196;DHT22;3639;51.308;5.624;2022-11-24T03:04:16;8.00;99.90
7196;DHT22;3639;51.308;5.624;2022-11-24T03:06:42;8.10;99.90
7196;DHT22;3639;51.308;5.624;2022-11-24T03:09:08;8.00;99.90
7196;DHT22;3639;51.308;5.624;2022-11-24T03:11:35;8.10;99.90
7196;DHT22;3639;51.308;5.624;2022-11-24T03:14:00;8.10;99.90
7196;DHT22;3639;51.308;5.624;2022-11-24T03:16:26;8.10;99.90
7196;DHT22;3639;51.308;5.624;2022-11-24T03:18:52;8.20;99.90
7196;DHT22;3639;51.308;5.624;2022-11-24T03:21:18;8.30;99.90
7196;DHT22;3639;51.308;5.624;2022-11-24T03:23:43;8.30;99.90
7196;DHT22;3639;51.308;5.624;2022-11-24T03:26:14;8.30;99.90
7196;DHT22;3639;51.308;5.624;2022-11-24T03:28:41;8.30;99.90
7196;DHT22;3639;51.308;5.624;2022-11-24T03:31:07;8.40;99.90
7196;DHT22;3639;51.308;5.624;2022-11-24T03:33:33;8.40;99.90
7196;DHT22;3639;51.308;5.624;2022-11-24T03:35:59;8.50;99.90
7196;DHT22;3639;51.308;5.624;2022-11-24T03:38:25;8.50;99.90
7196;DHT22;3639;51.308;5.624;2022-11-24T03:40:50;8.50;99.90
7196;DHT22;3639;51.308;5.624;2022-11-24T03:43:16;8.50;99.90
7196;DHT22;3639;51.308;5.624;2022-11-24T03:45:48;8.50;99.90
7196;DHT22;3639;51.308;5.624;2022-11-24T03:48:15;8.50;99.90
7196;DHT22;3639;51.308;5.624;2022-11-24T03:50:41;8.50;99.90
7196;DHT22;3639;51.308;5.624;2022-11-24T03:53:07;8.40;99.90
7196;DHT22;3639;51.308;5.624;2022-11-24T03:55:32;8.40;99.90
7196;DHT22;3639;51.308;5.624;2022-11-24T03:57:58;8.40;99.90
7196;DHT22;3639;51.308;5.624;2022-11-24T04:00:25;8.40;99.90
7196;DHT22;3639;51.308;5.624;2022-11-24T04:02:51;8.50;99.90
7196;DHT22;3639;51.308;5.624;2022-11-24T04:05:17;8.50;99.90
7196;DHT22;3639;51.308;5.624;2022-11-24T04:07:43;8.50;99.90
7196;DHT22;3639;51.308;5.624;2022-11-24T04:10:09;8.40;99.90
7196;DHT22;3639;51.308;5.624;2022-11-24T04:12:34;8.40;99.90
7196;DHT22;3639;51.308;5.624;2022-11-24T04:15:10;8.40;99.90
7196;DHT22;3639;51.308;5.624;2022-11-24T04:17:36;8.40;99.90
7196;DHT22;3639;51.308;5.624;2022-11-24T04:20:02;8.30;99.90
7196;DHT22;3639;51.308;5.624;2022-11-24T04:22:28;8.30;99.90
7196;DHT22;3639;51.308;5.624;2022-11-24T04:24:54;8.30;99.90
7196;DHT22;3639;51.308;5.624;2022-11-24T04:27:19;8.30;99.90
7196;DHT22;3639;51.308;5.624;2022-11-24T04:29:45;8.30;99.90
7196;DHT22;3639;51.308;5.624;2022-11-24T04:32:10;8.20;99.90
7196;DHT22;3639;51.308;5.624;2022-11-24T04:34:36;8.20;99.90
7196;DHT22;3639;51.308;5.624;2022-11-24T04:37:02;8.30;99.90
7196;DHT22;3639;51.308;5.624;2022-11-24T04:39:27;8.20;99.90
7196;DHT22;3639;51.308;5.624;2022-11-24T04:41:53;8.30;99.90
7196;DHT22;3639;51.308;5.624;2022-11-24T04:44:19;8.30;99.90
7196;DHT22;3639;51.308;5.624;2022-11-24T04:46:46;8.40;99.90
7196;DHT22;3639;51.308;5.624;2022-11-24T04:49:11;8.40;99.90
7196;DHT22;3639;51.308;5.624;2022-11-24T04:51:38;8.40;99.90
7196;DHT22;3639;51.308;5.624;2022-11-24T04:54:05;8.40;99.90
7196;DHT22;3639;51.308;5.624;2022-11-24T04:56:31;8.40;99.90
7196;DHT22;3639;51.308;5.624;2022-11-24T04:58:57;8.50;99.90
7196;DHT22;3639;51.308;5.624;2022-11-24T05:01:23;8.50;99.90
7196;DHT22;3639;51.308;5.624;2022-11-24T05:03:55;8.50;99.90
7196;DHT22;3639;51.308;5.624;2022-11-24T05:06:21;8.50;99.90
7196;DHT22;3639;51.308;5.624;2022-11-24T05:08:49;8.60;99.90
7196;DHT22;3639;51.308;5.624;2022-11-24T05:11:15;8.60;99.90
7196;DHT22;3639;51.308;5.624;2022-11-24T05:13:41;8.50;99.90
7196;DHT22;3639;51.308;5.624;2022-11-24T05:16:07;8.60;99.90
7196;DHT22;3639;51.308;5.624;2022-11-24T05:18:33;8.60;99.90
7196;DHT22;3639;51.308;5.624;2022-11-24T05:20:58;8.50;99.90
7196;DHT22;3639;51.308;5.624;2022-11-24T05:23:24;8.40;99.90
7196;DHT22;3639;51.308;5.624;2022-11-24T05:25:50;8.40;99.90
7196;DHT22;3639;51.308;5.624;2022-11-24T05:28:17;8.40;99.90
7196;DHT22;3639;51.308;5.624;2022-11-24T05:30:44;8.40;99.90
7196;DHT22;3639;51.308;5.624;2022-11-24T05:33:14;8.40;99.90
7196;DHT22;3639;51.308;5.624;2022-11-24T05:35:47;8.40;99.90
7196;DHT22;3639;51.308;5.624;2022-11-24T05:38:14;8.20;99.90
7196;DHT22;3639;51.308;5.624;2022-11-24T05:40:40;8.20;99.90
7196;DHT22;3639;51.308;5.624;2022-11-24T05:43:14;8.10;99.90
7196;DHT22;3639;51.308;5.624;2022-11-24T05:45:40;8.00;99.90
7196;DHT22;3639;51.308;5.624;2022-11-24T05:48:07;8.00;99.90
7196;DHT22;3639;51.308;5.624;2022-11-24T05:50:34;8.00;99.90
7196;DHT22;3639;51.308;5.624;2022-11-24T05:53:05;7.90;99.90
7196;DHT22;3639;51.308;5.624;2022-11-24T05:55:31;8.00;99.90
7196;DHT22;3639;51.308;5.624;2022-11-24T05:57:58;8.00;99.90
7196;DHT22;3639;51.308;5.624;2022-11-24T06:00:25;8.00;99.90
7196;DHT22;3639;51.308;5.624;2022-11-24T06:02:50;8.10;99.90
7196;DHT22;3639;51.308;5.624;2022-11-24T06:05:16;8.20;99.90
7196;DHT22;3639;51.308;5.624;2022-11-24T06:07:42;8.20;99.90
7196;DHT22;3639;51.308;5.624;2022-11-24T06:10:08;8.30;99.90
7196;DHT22;3639;51.308;5.624;2022-11-24T06:12:34;8.30;99.90
7196;DHT22;3639;51.308;5.624;2022-11-24T06:15:01;8.40;99.90
7196;DHT22;3639;51.308;5.624;2022-11-24T06:17:26;8.40;99.90
7196;DHT22;3639;51.308;5.624;2022-11-24T06:19:52;8.40;99.90
7196;DHT22;3639;51.308;5.624;2022-11-24T06:22:18;8.50;99.90
7196;DHT22;3639;51.308;5.624;2022-11-24T06:24:44;8.40;99.90
7196;DHT22;3639;51.308;5.624;2022-11-24T06:27:11;8.40;99.90
7196;DHT22;3639;51.308;5.624;2022-11-24T06:29:37;8.40;99.90
7196;DHT22;3639;51.308;5.624;2022-11-24T06:32:03;8.30;99.90
7196;DHT22;3639;51.308;5.624;2022-11-24T06:34:28;8.40;99.90
7196;DHT22;3639;51.308;5.624;2022-11-24T06:36:54;8.40;99.90
7196;DHT22;3639;51.308;5.624;2022-11-24T06:39:19;8.60;99.90
7196;DHT22;3639;51.308;5.624;2022-11-24T06:41:45;8.60;99.90
7196;DHT22;3639;51.308;5.624;2022-11-24T06:44:11;8.60;99.90
7196;DHT22;3639;51.308;5.624;2022-11-24T06:46:36;8.50;99.90
7196;DHT22;3639;51.308;5.624;2022-11-24T06:49:02;8.50;99.90
7196;DHT22;3639;51.308;5.624;2022-11-24T06:51:27;8.40;99.90
7196;DHT22;3639;51.308;5.624;2022-11-24T06:53:53;8.40;99.90
7196;DHT22;3639;51.308;5.624;2022-11-24T06:56:20;8.40;99.90
7196;DHT22;3639;51.308;5.624;2022-11-24T06:58:50;8.40;99.90
7196;DHT22;3639;51.308;5.624;2022-11-24T07:01:18;8.30;99.90
7196;DHT22;3639;51.308;5.624;2022-11-24T07:03:44;8.30;99.90
7196;DHT22;3639;51.308;5.624;2022-11-24T07:06:10;8.30;99.90
7196;DHT22;3639;51.308;5.624;2022-11-24T07:08:35;8.30;99.90
7196;DHT22;3639;51.308;5.624;2022-11-24T07:11:06;8.20;99.90
7196;DHT22;3639;51.308;5.624;2022-11-24T07:13:32;8.20;99.90
7196;DHT22;3639;51.308;5.624;2022-11-24T07:15:59;8.20;99.90
7196;DHT22;3639;51.308;5.624;2022-11-24T07:18:24;8.10;99.90
7196;DHT22;3639;51.308;5.624;2022-11-24T07:20:50;8.10;99.90
7196;DHT22;3639;51.308;5.624;2022-11-24T07:23:15;8.10;99.90
7196;DHT22;3639;51.308;5.624;2022-11-24T07:25:41;8.20;99.90
7196;DHT22;3639;51.308;5.624;2022-11-24T07:28:07;8.10;99.90
7196;DHT22;3639;51.308;5.624;2022-11-24T07:30:32;8.20;99.90
7196;DHT22;3639;51.308;5.624;2022-11-24T07:33:02;8.20;99.90
7196;DHT22;3639;51.308;5.624;2022-11-24T07:35:28;8.20;99.90
7196;DHT22;3639;51.308;5.624;2022-11-24T07:37:55;8.20;99.90
7196;DHT22;3639;51.308;5.624;2022-11-24T07:40:22;8.20;99.90
7196;DHT22;3639;51.308;5.624;2022-11-24T07:42:47;8.20;99.90
7196;DHT22;3639;51.308;5.624;2022-11-24T07:45:13;8.20;99.90
7196;DHT22;3639;51.308;5.624;2022-11-24T07:47:39;8.20;99.90
7196;DHT22;3639;51.308;5.624;2022-11-24T07:50:07;8.20;99.90
7196;DHT22;3639;51.308;5.624;2022-11-24T07:52:34;8.10;99.90
7196;DHT22;3639;51.308;5.624;2022-11-24T07:55:00;8.10;99.90
7196;DHT22;3639;51.308;5.624;2022-11-24T07:57:25;8.00;99.90
7196;DHT22;3639;51.308;5.624;2022-11-24T07:59:53;8.00;99.90
7196;DHT22;3639;51.308;5.624;2022-11-24T08:02:19;7.90;99.90
7196;DHT22;3639;51.308;5.624;2022-11-24T08:04:45;7.80;99.90
7196;DHT22;3639;51.308;5.624;2022-11-24T08:07:10;7.80;99.90
7196;DHT22;3639;51.308;5.624;2022-11-24T08:09:36;7.80;99.90
7196;DHT22;3639;51.308;5.624;2022-11-24T08:12:01;7.80;99.90
7196;DHT22;3639;51.308;5.624;2022-11-24T08:14:27;7.90;99.90
7196;DHT22;3639;51.308;5.624;2022-11-24T08:16:53;7.90;99.90
7196;DHT22;3639;51.308;5.624;2022-11-24T08:19:18;8.00;99.90
7196;DHT22;3639;51.308;5.624;2022-11-24T08:21:44;8.00;99.90
7196;DHT22;3639;51.308;5.624;2022-11-24T08:24:09;8.10;99.90
7196;DHT22;3639;51.308;5.624;2022-11-24T08:26:35;8.10;99.90
7196;DHT22;3639;51.308;5.624;2022-11-24T08:29:01;8.10;99.90
7196;DHT22;3639;51.308;5.624;2022-11-24T08:31:27;8.20;99.90
7196;DHT22;3639;51.308;5.624;2022-11-24T08:33:58;8.10;99.90
7196;DHT22;3639;51.308;5.624;2022-11-24T08:36:24;8.10;99.90
7196;DHT22;3639;51.308;5.624;2022-11-24T08:38:54;8.10;99.90
7196;DHT22;3639;51.308;5.624;2022-11-24T08:41:20;8.10;99.90
7196;DHT22;3639;51.308;5.624;2022-11-24T08:43:46;8.20;99.90
7196;DHT22;3639;51.308;5.624;2022-11-24T08:46:13;8.20;99.90
7196;DHT22;3639;51.308;5.624;2022-11-24T08:48:41;8.20;99.90
7196;DHT22;3639;51.308;5.624;2022-11-24T08:51:12;8.20;99.90
7196;DHT22;3639;51.308;5.624;2022-11-24T08:53:39;8.20;99.90
7196;DHT22;3639;51.308;5.624;2022-11-24T08:56:06;8.30;99.90
7196;DHT22;3639;51.308;5.624;2022-11-24T08:58:32;8.30;99.90
7196;DHT22;3639;51.308;5.624;2022-11-24T09:01:08;8.30;99.90
7196;DHT22;3639;51.308;5.624;2022-11-24T09:03:34;8.30;99.90
7196;DHT22;3639;51.308;5.624;2022-11-24T09:06:00;8.40;99.90
7196;DHT22;3639;51.308;5.624;2022-11-24T09:08:28;8.50;99.90
7196;DHT22;3639;51.308;5.624;2022-11-24T09:10:59;8.50;99.90
7196;DHT22;3639;51.308;5.624;2022-11-24T09:13:25;8.60;99.90
7196;DHT22;3639;51.308;5.624;2022-11-24T09:15:50;8.60;99.90
7196;DHT22;3639;51.308;5.624;2022-11-24T09:18:16;8.60;99.90
7196;DHT22;3639;51.308;5.624;2022-11-24T09:20:41;8.60;99.90
7196;DHT22;3639;51.308;5.624;2022-11-24T09:23:07;8.60;99.90
7196;DHT22;3639;51.308;5.624;2022-11-24T09:25:33;8.70;99.90
7196;DHT22;3639;51.308;5.624;2022-11-24T09:27:58;8.70;99.90
7196;DHT22;3639;51.308;5.624;2022-11-24T09:30:24;8.70;99.90
7196;DHT22;3639;51.308;5.624;2022-11-24T09:32:50;8.80;99.90
7196;DHT22;3639;51.308;5.624;2022-11-24T09:35:16;8.90;99.90
7196;DHT22;3639;51.308;5.624;2022-11-24T09:37:41;9.00;99.90
7196;DHT22;3639;51.308;5.624;2022-11-24T09:40:11;9.00;99.90
7196;DHT22;3639;51.308;5.624;2022-11-24T09:43:10;9.10;99.90
7196;DHT22;3639;51.308;5.624;2022-11-24T09:45:59;9.10;99.90
7196;DHT22;3639;51.308;5.624;2022-11-24T09:48:32;9.10;99.90
7196;DHT22;3639;51.308;5.624;2022-11-24T09:51:01;9.20;99.90
7196;DHT22;3639;51.308;5.624;2022-11-24T09:53:38;9.20;99.90
7196;DHT22;3639;51.308;5.624;2022-11-24T09:56:21;9.30;99.90
7196;DHT22;3639;51.308;5.624;2022-11-24T09:58:49;9.30;99.90
7196;DHT22;3639;51.308;5.624;2022-11-24T10:01:19;9.40;99.90
7196;DHT22;3639;51.308;5.624;2022-11-24T10:03:48;9.40;99.90
7196;DHT22;3639;51.308;5.624;2022-11-24T10:06:22;9.50;99.90
7196;DHT22;3639;51.308;5.624;2022-11-24T10:11:35;9.60;99.90
7196;DHT22;3639;51.308;5.624;2022-11-24T10:28:28;10.00;99.90
7196;DHT22;3639;51.308;5.624;2022-11-24T10:33:50;10.10;99.90
7196;DHT22;3639;51.308;5.624;2022-11-24T10:36:47;10.20;99.90
7196;DHT22;3639;51.308;5.624;2022-11-24T10:39:32;10.20;99.90
7196;DHT22;3639;51.308;5.624;2022-11-24T10:42:17;10.30;99.90
7196;DHT22;3639;51.308;5.624;2022-11-24T10:44:43;10.30;99.90
7196;DHT22;3639;51.308;5.624;2022-11-24T10:47:17;10.40;99.90
7196;DHT22;3639;51.308;5.624;2022-11-24T10:49:51;10.50;99.90
7196;DHT22;3639;51.308;5.624;2022-11-24T10:52:19;10.40;99.90
7196;DHT22;3639;51.308;5.624;2022-11-24T10:54:56;10.50;99.90
7196;DHT22;3639;51.308;5.624;2022-11-24T10:57:33;10.50;99.90
7196;DHT22;3639;51.308;5.624;2022-11-24T11:00:01;10.60;99.90
7196;DHT22;3639;51.308;5.624;2022-11-24T11:02:29;10.60;99.90
7196;DHT22;3639;51.308;5.624;2022-11-24T11:04:55;10.70;99.90
7196;DHT22;3639;51.308;5.624;2022-11-24T11:07:23;10.80;99.90
7196;DHT22;3639;51.308;5.624;2022-11-24T11:09:50;10.80;99.90
7196;DHT22;3639;51.308;5.624;2022-11-24T11:12:35;10.80;99.90
7196;DHT22;3639;51.308;5.624;2022-11-24T11:15:24;10.80;99.90
7196;DHT22;3639;51.308;5.624;2022-11-24T11:17:50;10.80;99.90
7196;DHT22;3639;51.308;5.624;2022-11-24T11:20:28;10.80;99.90
7196;DHT22;3639;51.308;5.624;2022-11-24T11:22:55;10.80;99.90
7196;DHT22;3639;51.308;5.624;2022-11-24T11:25:40;10.90;99.90
7196;DHT22;3639;51.308;5.624;2022-11-24T11:28:22;10.90;99.90
7196;DHT22;3639;51.308;5.624;2022-11-24T11:31:03;10.90;99.90
7196;DHT22;3639;51.308;5.624;2022-11-24T11:33:31;10.90;99.90
7196;DHT22;3639;51.308;5.624;2022-11-24T11:35:59;11.00;99.90
7196;DHT22;3639;51.308;5.624;2022-11-24T11:38:31;11.00;99.90
7196;DHT22;3639;51.308;5.624;2022-11-24T11:40:58;11.00;99.90
7196;DHT22;3639;51.308;5.624;2022-11-24T11:43:29;11.00;99.90
7196;DHT22;3639;51.308;5.624;2022-11-24T11:46:02;11.10;99.90
7196;DHT22;3639;51.308;5.624;2022-11-24T11:48:31;11.10;99.90
7196;DHT22;3639;51.308;5.624;2022-11-24T11:54:18;11.10;99.90
7196;DHT22;3639;51.308;5.624;2022-11-24T11:56:49;11.20;99.90
7196;DHT22;3639;51.308;5.624;2022-11-24T12:02:09;11.20;99.90
7196;DHT22;3639;51.308;5.624;2022-11-24T12:12:46;11.30;99.90
7196;DHT22;3639;51.308;5.624;2022-11-24T12:15:34;11.30;99.90
7196;DHT22;3639;51.308;5.624;2022-11-24T12:18:38;11.40;99.90
7196;DHT22;3639;51.308;5.624;2022-11-24T12:21:33;11.40;99.90
7196;DHT22;3639;51.308;5.624;2022-11-24T12:29:24;11.50;99.90
7196;DHT22;3639;51.308;5.624;2022-11-24T12:31:59;11.50;99.90
7196;DHT22;3639;51.308;5.624;2022-11-24T12:39:34;11.50;99.90
7196;DHT22;3639;51.308;5.624;2022-11-24T12:45:02;11.60;99.90
7196;DHT22;3639;51.308;5.624;2022-11-24T12:50:21;11.50;99.90
7196;DHT22;3639;51.308;5.624;2022-11-24T12:55:26;11.60;99.90
7196;DHT22;3639;51.308;5.624;2022-11-24T13:00:54;11.70;99.90
7196;DHT22;3639;51.308;5.624;2022-11-24T13:03:26;11.70;99.90
7196;DHT22;3639;51.308;5.624;2022-11-24T13:08:40;11.60;99.90
7196;DHT22;3639;51.308;5.624;2022-11-24T13:14:11;11.70;99.90
7196;DHT22;3639;51.308;5.624;2022-11-24T13:16:51;11.70;99.90
7196;DHT22;3639;51.308;5.624;2022-11-24T13:19:23;11.70;99.90
7196;DHT22;3639;51.308;5.624;2022-11-24T13:21:55;11.70;99.90
7196;DHT22;3639;51.308;5.624;2022-11-24T13:24:25;11.70;99.90
7196;DHT22;3639;51.308;5.624;2022-11-24T13:29:41;11.70;99.90
7196;DHT22;3639;51.308;5.624;2022-11-24T13:39:51;11.60;99.90
7196;DHT22;3639;51.308;5.624;2022-11-24T13:42:19;11.60;99.90
7196;DHT22;3639;51.308;5.624;2022-11-24T13:44:47;11.60;99.90
7196;DHT22;3639;51.308;5.624;2022-11-24T13:50:23;11.60;99.90
7196;DHT22;3639;51.308;5.624;2022-11-24T13:52:53;11.60;99.90
7196;DHT22;3639;51.308;5.624;2022-11-24T13:55:30;11.50;99.90
7196;DHT22;3639;51.308;5.624;2022-11-24T13:58:00;11.50;99.90
7196;DHT22;3639;51.308;5.624;2022-11-24T14:00:34;11.50;99.90
7196;DHT22;3639;51.308;5.624;2022-11-24T14:03:04;11.50;99.90
7196;DHT22;3639;51.308;5.624;2022-11-24T14:05:39;11.40;99.90
7196;DHT22;3639;51.308;5.624;2022-11-24T14:08:06;11.40;99.90
7196;DHT22;3639;51.308;5.624;2022-11-24T14:10:40;11.40;99.90
7196;DHT22;3639;51.308;5.624;2022-11-24T14:15:43;11.30;99.90
7196;DHT22;3639;51.308;5.624;2022-11-24T14:18:17;11.20;99.90
7196;DHT22;3639;51.308;5.624;2022-11-24T14:20:45;11.10;99.90
7196;DHT22;3639;51.308;5.624;2022-11-24T14:23:11;11.10;99.90
7196;DHT22;3639;51.308;5.624;2022-11-24T14:25:37;11.00;99.90
7196;DHT22;3639;51.308;5.624;2022-11-24T14:28:20;11.00;99.90
7196;DHT22;3639;51.308;5.624;2022-11-24T14:30:46;11.00;99.90
7196;DHT22;3639;51.308;5.624;2022-11-24T14:33:12;10.90;99.90
7196;DHT22;3639;51.308;5.624;2022-11-24T14:35:45;10.90;99.90
7196;DHT22;3639;51.308;5.624;2022-11-24T14:38:11;10.90;99.90
7196;DHT22;3639;51.308;5.624;2022-11-24T14:40:50;10.80;99.90
7196;DHT22;3639;51.308;5.624;2022-11-24T14:43:27;10.70;99.90
7196;DHT22;3639;51.308;5.624;2022-11-24T14:46:04;10.60;99.90
7196;DHT22;3639;51.308;5.624;2022-11-24T14:48:49;10.60;99.90
7196;DHT22;3639;51.308;5.624;2022-11-24T14:51:51;10.50;99.90
7196;DHT22;3639;51.308;5.624;2022-11-24T14:54:19;10.40;99.90
7196;DHT22;3639;51.308;5.624;2022-11-24T14:57:05;10.30;99.90
7196;DHT22;3639;51.308;5.624;2022-11-24T14:59:33;10.30;99.90
7196;DHT22;3639;51.308;5.624;2022-11-24T15:02:00;10.30;99.90
7196;DHT22;3639;51.308;5.624;2022-11-24T15:04:28;10.20;99.90
7196;DHT22;3639;51.308;5.624;2022-11-24T15:09:52;10.20;99.90
7196;DHT22;3639;51.308;5.624;2022-11-24T15:12:35;10.20;99.90
7196;DHT22;3639;51.308;5.624;2022-11-24T15:17:58;10.10;99.90
7196;DHT22;3639;51.308;5.624;2022-11-24T15:23:28;9.90;99.90
7196;DHT22;3639;51.308;5.624;2022-11-24T15:25:55;9.80;99.90
7196;DHT22;3639;51.308;5.624;2022-11-24T15:28:21;9.70;99.90
7196;DHT22;3639;51.308;5.624;2022-11-24T15:31:10;9.70;99.90
7196;DHT22;3639;51.308;5.624;2022-11-24T15:33:36;9.60;99.90
7196;DHT22;3639;51.308;5.624;2022-11-24T15:36:02;9.60;99.90
7196;DHT22;3639;51.308;5.624;2022-11-24T15:38:28;9.60;99.90
7196;DHT22;3639;51.308;5.624;2022-11-24T15:40:56;9.60;99.90
7196;DHT22;3639;51.308;5.624;2022-11-24T15:43:41;9.60;99.90
7196;DHT22;3639;51.308;5.624;2022-11-24T15:46:08;9.50;99.90
7196;DHT22;3639;51.308;5.624;2022-11-24T15:48:34;9.50;99.90
7196;DHT22;3639;51.308;5.624;2022-11-24T15:51:01;9.40;99.90
7196;DHT22;3639;51.308;5.624;2022-11-24T15:53:31;9.30;99.90
7196;DHT22;3639;51.308;5.624;2022-11-24T15:55:57;9.20;99.90
7196;DHT22;3639;51.308;5.624;2022-11-24T15:58:24;9.20;99.90
7196;DHT22;3639;51.308;5.624;2022-11-24T16:00:50;9.20;99.90
7196;DHT22;3639;51.308;5.624;2022-11-24T16:03:21;9.20;99.90
7196;DHT22;3639;51.308;5.624;2022-11-24T16:05:47;9.20;99.90
7196;DHT22;3639;51.308;5.624;2022-11-24T16:08:14;9.20;99.90
7196;DHT22;3639;51.308;5.624;2022-11-24T16:10:41;9.20;99.90
7196;DHT22;3639;51.308;5.624;2022-11-24T16:13:07;9.20;99.90
7196;DHT22;3639;51.308;5.624;2022-11-24T16:15:33;9.20;99.90
7196;DHT22;3639;51.308;5.624;2022-11-24T16:17:59;9.10;99.90
7196;DHT22;3639;51.308;5.624;2022-11-24T16:20:25;9.10;99.90
7196;DHT22;3639;51.308;5.624;2022-11-24T16:22:51;9.10;99.90
7196;DHT22;3639;51.308;5.624;2022-11-24T16:25:16;9.10;99.90
7196;DHT22;3639;51.308;5.624;2022-11-24T16:27:42;9.10;99.90
7196;DHT22;3639;51.308;5.624;2022-11-24T16:30:11;9.10;99.90
7196;DHT22;3639;51.308;5.624;2022-11-24T16:32:36;9.10;99.90
7196;DHT22;3639;51.308;5.624;2022-11-24T16:35:03;9.10;99.90
7196;DHT22;3639;51.308;5.624;2022-11-24T16:37:28;9.10;99.90
7196;DHT22;3639;51.308;5.624;2022-11-24T16:39:54;9.10;99.90
7196;DHT22;3639;51.308;5.624;2022-11-24T16:42:20;9.00;99.90
7196;DHT22;3639;51.308;5.624;2022-11-24T16:44:45;9.00;99.90
7196;DHT22;3639;51.308;5.624;2022-11-24T16:47:11;8.90;99.90
7196;DHT22;3639;51.308;5.624;2022-11-24T16:49:37;8.90;99.90
7196;DHT22;3639;51.308;5.624;2022-11-24T16:52:03;8.90;99.90
7196;DHT22;3639;51.308;5.624;2022-11-24T16:54:29;8.90;99.90
7196;DHT22;3639;51.308;5.624;2022-11-24T16:56:55;8.90;99.90
7196;DHT22;3639;51.308;5.624;2022-11-24T16:59:21;8.80;99.90
7196;DHT22;3639;51.308;5.624;2022-11-24T17:01:47;8.80;99.90
7196;DHT22;3639;51.308;5.624;2022-11-24T17:04:15;8.80;99.90
7196;DHT22;3639;51.308;5.624;2022-11-24T17:06:42;8.70;99.90
7196;DHT22;3639;51.308;5.624;2022-11-24T17:09:07;8.70;99.90
7196;DHT22;3639;51.308;5.624;2022-11-24T17:11:33;8.70;99.90
7196;DHT22;3639;51.308;5.624;2022-11-24T17:13:59;8.70;99.90
7196;DHT22;3639;51.308;5.624;2022-11-24T17:16:25;8.70;99.90
7196;DHT22;3639;51.308;5.624;2022-11-24T17:18:51;8.70;99.90
7196;DHT22;3639;51.308;5.624;2022-11-24T17:21:22;8.70;99.90
7196;DHT22;3639;51.308;5.624;2022-11-24T17:23:59;8.70;99.90
7196;DHT22;3639;51.308;5.624;2022-11-24T17:26:25;8.70;99.90
7196;DHT22;3639;51.308;5.624;2022-11-24T17:28:52;8.70;99.90
7196;DHT22;3639;51.308;5.624;2022-11-24T17:31:26;8.70;99.90
7196;DHT22;3639;51.308;5.624;2022-11-24T17:33:54;8.70;99.90
7196;DHT22;3639;51.308;5.624;2022-11-24T17:36:20;8.70;99.90
7196;DHT22;3639;51.308;5.624;2022-11-24T17:38:46;8.60;99.90
7196;DHT22;3639;51.308;5.624;2022-11-24T17:41:14;8.60;99.90
7196;DHT22;3639;51.308;5.624;2022-11-24T17:43:39;8.60;99.90
7196;DHT22;3639;51.308;5.624;2022-11-24T17:46:05;8.60;99.90
7196;DHT22;3639;51.308;5.624;2022-11-24T17:48:34;8.70;99.90
7196;DHT22;3639;51.308;5.624;2022-11-24T17:51:02;8.70;99.90
7196;DHT22;3639;51.308;5.624;2022-11-24T17:53:29;8.70;99.90
7196;DHT22;3639;51.308;5.624;2022-11-24T17:55:57;8.60;99.90
7196;DHT22;3639;51.308;5.624;2022-11-24T17:58:26;8.70;99.90
7196;DHT22;3639;51.308;5.624;2022-11-24T18:00:52;8.60;99.90